sensor_id;sensor_type;location;lat;lon;timestamp;pressure;altitude;pressure_sealevel;temperature;humidity
50093;BME280;35974;47.752;10.290;2023-06-10T00:02:09;93455.91;;;13.42;91.93
50093;BME280;35974;47.752;10.290;2023-06-10T00:04:35;93457.69;;;13.30;92.34
50093;BME280;35974;47.752;10.290;2023-06-10T00:07:05;93454.19;;;13.36;91.55
50093;BME280;35974;47.752;10.290;2023-06-10T00:09:37;93453.63;;;13.34;91.23
50093;BME280;35974;47.752;10.290;2023-06-10T00:12:04;93456.44;;;13.21;92.08
50093;BME280;35974;47.752;10.290;2023-06-10T00:14:31;93454.88;;;13.19;93.40
50093;BME280;35974;47.752;10.290;2023-06-10T00:16:57;93461.59;;;13.15;94.13
50093;BME280;35974;47.752;10.290;2023-06-10T00:19:24;93454.41;;;13.23;94.11
50093;BME280;35974;47.752;10.290;2023-06-10T00:21:56;93463.19;;;13.16;96.75
50093;BME280;35974;47.752;10.290;2023-06-10T00:24:23;93463.19;;;13.16;97.11
50093;BME280;35974;47.752;10.290;2023-06-10T00:26:49;93457.94;;;13.16;97.38
50093;BME280;35974;47.752;10.290;2023-06-10T00:29:17;93461.59;;;13.15;98.08
50093;BME280;35974;47.752;10.290;2023-06-10T00:31:44;93457.72;;;13.18;97.33
50093;BME280;35974;47.752;10.290;2023-06-10T00:34:11;93453.72;;;13.15;98.39
50093;BME280;35974;47.752;10.290;2023-06-10T00:36:38;93452.38;;;13.13;98.73
50093;BME280;35974;47.752;10.290;2023-06-10T00:39:04;93453.59;;;13.10;98.05
50093;BME280;35974;47.752;10.290;2023-06-10T00:41:31;93456.13;;;13.05;97.94
50093;BME280;35974;47.752;10.290;2023-06-10T00:43:57;93459.78;;;13.04;98.66
50093;BME280;35974;47.752;10.290;2023-06-10T00:46:24;93458.66;;;13.00;100.00
50093;BME280;35974;47.752;10.290;2023-06-10T00:48:51;93460.81;;;13.15;98.97
50093;BME280;35974;47.752;10.290;2023-06-10T00:51:18;93467.31;;;13.12;99.02
50093;BME280;35974;47.752;10.290;2023-06-10T00:53:48;93460.59;;;13.05;99.96
50093;BME280;35974;47.752;10.290;2023-06-10T00:56:15;93461.84;;;13.02;99.53
50093;BME280;35974;47.752;10.290;2023-06-10T00:58:41;93459.56;;;12.94;100.00
50093;BME280;35974;47.752;10.290;2023-06-10T01:01:09;93456.25;;;12.98;100.00
50093;BME280;35974;47.752;10.290;2023-06-10T01:03:37;93453.59;;;12.87;100.00
50093;BME280;35974;47.752;10.290;2023-06-10T01:08:46;93466.94;;;12.73;100.00
50093;BME280;35974;47.752;10.290;2023-06-10T01:11:19;93460.56;;;12.69;100.00
50093;BME280;35974;47.752;10.290;2023-06-10T01:13:45;93458.84;;;12.63;100.00
50093;BME280;35974;47.752;10.290;2023-06-10T01:16:14;93462.13;;;12.58;100.00
50093;BME280;35974;47.752;10.290;2023-06-10T01:18:41;93453.34;;;12.53;100.00
50093;BME280;35974;47.752;10.290;2023-06-10T01:21:08;93463.38;;;12.56;100.00
50093;BME280;35974;47.752;10.290;2023-06-10T01:23:35;93453.22;;;12.48;100.00
50093;BME280;35974;47.752;10.290;2023-06-10T01:26:06;93457.66;;;12.35;100.00
50093;BME280;35974;47.752;10.290;2023-06-10T01:31:13;93464.78;;;12.16;100.00
50093;BME280;35974;47.752;10.290;2023-06-10T01:33:43;93465.22;;;12.13;100.00
50093;BME280;35974;47.752;10.290;2023-06-10T01:36:10;93468.59;;;12.02;100.00
50093;BME280;35974;47.752;10.290;2023-06-10T01:38:41;93469.25;;;11.97;100.00
50093;BME280;35974;47.752;10.290;2023-06-10T01:41:09;93463.25;;;12.08;100.00
50093;BME280;35974;47.752;10.290;2023-06-10T01:43:37;93462.72;;;11.88;100.00
50093;BME280;35974;47.752;10.290;2023-06-10T01:46:04;93464.72;;;11.86;100.00
50093;BME280;35974;47.752;10.290;2023-06-10T01:48:31;93465.19;;;11.83;100.00
50093;BME280;35974;47.752;10.290;2023-06-10T01:50:57;93462.28;;;11.91;100.00
50093;BME280;35974;47.752;10.290;2023-06-10T01:53:24;93468.69;;;11.77;100.00
50093;BME280;35974;47.752;10.290;2023-06-10T01:55:50;93471.75;;;11.73;100.00
50093;BME280;35974;47.752;10.290;2023-06-10T01:58:17;93466.25;;;11.63;100.00
50093;BME280;35974;47.752;10.290;2023-06-10T02:00:43;93464.19;;;11.65;100.00
50093;BME280;35974;47.752;10.290;2023-06-10T02:03:10;93469.44;;;11.65;100.00
50093;BME280;35974;47.752;10.290;2023-06-10T02:05:36;93466.38;;;11.68;100.00
50093;BME280;35974;47.752;10.290;2023-06-10T02:08:03;93463.31;;;11.71;100.00
50093;BME280;35974;47.752;10.290;2023-06-10T02:10:29;93463.75;;;11.68;100.00
50093;BME280;35974;47.752;10.290;2023-06-10T02:12:56;93472.72;;;11.61;100.00
50093;BME280;35974;47.752;10.290;2023-06-10T02:15:22;93474.38;;;11.55;100.00
50093;BME280;35974;47.752;10.290;2023-06-10T02:17:48;93466.28;;;11.57;100.00
50093;BME280;35974;47.752;10.290;2023-06-10T02:20:15;93465.41;;;11.63;100.00
50093;BME280;35974;47.752;10.290;2023-06-10T02:22:42;93475.69;;;11.83;100.00
50093;BME280;35974;47.752;10.290;2023-06-10T02:25:09;93474.81;;;11.70;100.00
50093;BME280;35974;47.752;10.290;2023-06-10T02:27:37;93479.47;;;11.68;100.00
50093;BME280;35974;47.752;10.290;2023-06-10T02:30:03;93473.63;;;11.66;100.00
50093;BME280;35974;47.752;10.290;2023-06-10T02:32:29;93481.81;;;11.77;100.00
50093;BME280;35974;47.752;10.290;2023-06-10T02:34:56;93486.16;;;11.83;100.00
50093;BME280;35974;47.752;10.290;2023-06-10T02:37:22;93488.63;;;11.78;100.00
50093;BME280;35974;47.752;10.290;2023-06-10T02:39:50;93475.38;;;11.72;100.00
50093;BME280;35974;47.752;10.290;2023-06-10T02:42:16;93471.91;;;11.60;100.00
50093;BME280;35974;47.752;10.290;2023-06-10T02:44:42;93479.78;;;11.60;100.00
50093;BME280;35974;47.752;10.290;2023-06-10T02:47:09;93482.84;;;11.57;100.00
50093;BME280;35974;47.752;10.290;2023-06-10T02:49:35;93483.63;;;11.58;100.00
50093;BME280;35974;47.752;10.290;2023-06-10T02:52:02;93489.38;;;11.48;100.00
50093;BME280;35974;47.752;10.290;2023-06-10T02:54:29;93492.00;;;11.29;100.00
50093;BME280;35974;47.752;10.290;2023-06-10T02:56:55;93487.47;;;11.18;100.00
50093;BME280;35974;47.752;10.290;2023-06-10T02:59:22;93491.69;;;11.19;100.00
50093;BME280;35974;47.752;10.290;2023-06-10T03:01:48;93494.00;;;11.09;100.00
50093;BME280;35974;47.752;10.290;2023-06-10T03:04:15;93498.06;;;11.05;100.00
50093;BME280;35974;47.752;10.290;2023-06-10T03:06:41;93490.66;;;11.02;100.00
50093;BME280;35974;47.752;10.290;2023-06-10T03:09:08;93503.56;;;10.96;100.00
50093;BME280;35974;47.752;10.290;2023-06-10T03:11:34;93499.38;;;11.14;100.00
50093;BME280;35974;47.752;10.290;2023-06-10T03:14:01;93500.25;;;11.08;100.00
50093;BME280;35974;47.752;10.290;2023-06-10T03:16:28;93496.41;;;10.85;100.00
50093;BME280;35974;47.752;10.290;2023-06-10T03:18:56;93500.50;;;10.81;100.00
50093;BME280;35974;47.752;10.290;2023-06-10T03:21:23;93503.69;;;10.83;100.00
50093;BME280;35974;47.752;10.290;2023-06-10T03:23:49;93506.56;;;10.75;100.00
50093;BME280;35974;47.752;10.290;2023-06-10T03:26:16;93505.34;;;11.03;100.00
50093;BME280;35974;47.752;10.290;2023-06-10T03:28:42;93506.66;;;11.12;100.00
50093;BME280;35974;47.752;10.290;2023-06-10T03:31:10;93503.56;;;10.96;100.00
50093;BME280;35974;47.752;10.290;2023-06-10T03:33:36;93508.50;;;10.86;100.00
50093;BME280;35974;47.752;10.290;2023-06-10T03:36:03;93513.72;;;10.86;100.00
50093;BME280;35974;47.752;10.290;2023-06-10T03:38:30;93513.63;;;10.99;100.00
50093;BME280;35974;47.752;10.290;2023-06-10T03:40:56;93517.41;;;11.04;100.00
50093;BME280;35974;47.752;10.290;2023-06-10T03:43:22;93520.94;;;10.91;100.00
50093;BME280;35974;47.752;10.290;2023-06-10T03:45:49;93520.84;;;10.79;100.00
50093;BME280;35974;47.752;10.290;2023-06-10T03:48:15;93523.47;;;10.79;100.00
50093;BME280;35974;47.752;10.290;2023-06-10T03:50:42;93533.94;;;10.79;100.00
50093;BME280;35974;47.752;10.290;2023-06-10T03:53:09;93530.72;;;10.77;100.00
50093;BME280;35974;47.752;10.290;2023-06-10T03:55:35;93525.38;;;10.90;100.00
50093;BME280;35974;47.752;10.290;2023-06-10T03:58:02;93521.00;;;10.84;100.00
50093;BME280;35974;47.752;10.290;2023-06-10T04:00:28;93452.53;;;10.37;100.00
50093;BME280;35974;47.752;10.290;2023-06-10T04:02:55;93526.97;;;10.91;100.00
50093;BME280;35974;47.752;10.290;2023-06-10T04:05:24;93524.09;;;10.99;100.00
50093;BME280;35974;47.752;10.290;2023-06-10T04:07:50;93518.00;;;11.06;100.00
50093;BME280;35974;47.752;10.290;2023-06-10T04:10:17;93523.22;;;11.06;100.00
50093;BME280;35974;47.752;10.290;2023-06-10T04:12:43;93501.97;;;10.95;100.00
50093;BME280;35974;47.752;10.290;2023-06-10T04:15:10;93527.19;;;11.15;100.00
50093;BME280;35974;47.752;10.290;2023-06-10T04:17:37;93526.75;;;11.18;100.00
50093;BME280;35974;47.752;10.290;2023-06-10T04:20:03;93525.44;;;11.27;100.00
50093;BME280;35974;47.752;10.290;2023-06-10T04:22:32;93528.00;;;11.34;100.00
50093;BME280;35974;47.752;10.290;2023-06-10T04:24:59;93520.53;;;11.38;100.00
50093;BME280;35974;47.752;10.290;2023-06-10T04:27:25;93523.88;;;11.45;100.00
50093;BME280;35974;47.752;10.290;2023-06-10T04:29:52;93521.53;;;11.55;100.00
50093;BME280;35974;47.752;10.290;2023-06-10T04:32:18;93531.91;;;11.68;100.00
50093;BME280;35974;47.752;10.290;2023-06-10T04:34:45;93530.13;;;11.81;100.00
50093;BME280;35974;47.752;10.290;2023-06-10T04:37:11;93523.88;;;11.82;100.00
50093;BME280;35974;47.752;10.290;2023-06-10T04:39:37;93521.56;;;11.92;100.00
50093;BME280;35974;47.752;10.290;2023-06-10T04:42:04;93529.56;;;11.97;100.00
50093;BME280;35974;47.752;10.290;2023-06-10T04:44:31;93529.25;;;12.05;100.00
50093;BME280;35974;47.752;10.290;2023-06-10T04:46:58;93532.88;;;12.23;100.00
50093;BME280;35974;47.752;10.290;2023-06-10T04:49:24;93530.81;;;12.25;100.00
50093;BME280;35974;47.752;10.290;2023-06-10T04:51:51;93527.31;;;12.31;100.00
50093;BME280;35974;47.752;10.290;2023-06-10T04:54:18;93535.09;;;12.38;100.00
50093;BME280;35974;47.752;10.290;2023-06-10T04:56:44;93536.41;;;12.59;100.00
50093;BME280;35974;47.752;10.290;2023-06-10T04:59:11;93528.69;;;12.64;100.00
50093;BME280;35974;47.752;10.290;2023-06-10T05:01:37;93539.88;;;12.71;100.00
50093;BME280;35974;47.752;10.290;2023-06-10T05:04:04;93544.53;;;13.11;100.00
50093;BME280;35974;47.752;10.290;2023-06-10T05:06:30;93543.81;;;13.04;100.00
50093;BME280;35974;47.752;10.290;2023-06-10T05:08:57;93544.06;;;13.14;100.00
50093;BME280;35974;47.752;10.290;2023-06-10T05:11:23;93546.81;;;13.19;100.00
50093;BME280;35974;47.752;10.290;2023-06-10T05:13:50;93556.16;;;13.15;100.00
50093;BME280;35974;47.752;10.290;2023-06-10T05:16:16;93552.06;;;13.19;100.00
50093;BME280;35974;47.752;10.290;2023-06-10T05:18:42;93554.28;;;13.34;100.00
50093;BME280;35974;47.752;10.290;2023-06-10T05:21:11;93553.47;;;13.34;100.00
50093;BME280;35974;47.752;10.290;2023-06-10T05:23:38;93544.88;;;13.39;100.00
50093;BME280;35974;47.752;10.290;2023-06-10T05:26:04;93553.25;;;13.47;100.00
50093;BME280;35974;47.752;10.290;2023-06-10T05:28:30;93550.72;;;13.52;100.00
50093;BME280;35974;47.752;10.290;2023-06-10T05:30:57;93553.47;;;13.58;100.00
50093;BME280;35974;47.752;10.290;2023-06-10T05:33:23;93551.41;;;13.60;100.00
50093;BME280;35974;47.752;10.290;2023-06-10T05:35:49;93553.22;;;13.71;100.00
50093;BME280;35974;47.752;10.290;2023-06-10T05:38:16;93544.19;;;13.79;100.00
50093;BME280;35974;47.752;10.290;2023-06-10T05:40:42;93549.78;;;13.82;100.00
50093;BME280;35974;47.752;10.290;2023-06-10T05:43:09;93546.06;;;14.07;100.00
50093;BME280;35974;47.752;10.290;2023-06-10T05:45:35;93547.38;;;14.21;100.00
50093;BME280;35974;47.752;10.290;2023-06-10T05:48:02;93545.81;;;14.20;100.00
50093;BME280;35974;47.752;10.290;2023-06-10T05:50:29;93560.16;;;14.29;100.00
50093;BME280;35974;47.752;10.290;2023-06-10T05:52:58;93555.34;;;14.38;100.00
50093;BME280;35974;47.752;10.290;2023-06-10T05:55:24;93555.75;;;14.47;100.00
50093;BME280;35974;47.752;10.290;2023-06-10T05:57:57;93559.06;;;14.54;100.00
50093;BME280;35974;47.752;10.290;2023-06-10T06:00:24;93559.34;;;14.70;100.00
50093;BME280;35974;47.752;10.290;2023-06-10T06:02:50;93560.97;;;14.88;100.00
50093;BME280;35974;47.752;10.290;2023-06-10T06:05:17;93568.97;;;14.76;100.00
50093;BME280;35974;47.752;10.290;2023-06-10T06:07:44;93565.28;;;14.77;100.00
50093;BME280;35974;47.752;10.290;2023-06-10T06:10:10;93563.84;;;14.86;100.00
50093;BME280;35974;47.752;10.290;2023-06-10T06:12:37;93561.50;;;15.01;100.00
50093;BME280;35974;47.752;10.290;2023-06-10T06:15:04;93562.28;;;15.19;100.00
50093;BME280;35974;47.752;10.290;2023-06-10T06:17:31;93563.81;;;15.15;100.00
50093;BME280;35974;47.752;10.290;2023-06-10T06:19:57;93563.34;;;15.18;100.00
50093;BME280;35974;47.752;10.290;2023-06-10T06:22:23;93565.00;;;15.24;100.00
50093;BME280;35974;47.752;10.290;2023-06-10T06:24:50;93569.63;;;15.17;100.00
50093;BME280;35974;47.752;10.290;2023-06-10T06:27:23;93572.53;;;15.32;100.00
50093;BME280;35974;47.752;10.290;2023-06-10T06:29:50;93566.28;;;15.38;100.00
50093;BME280;35974;47.752;10.290;2023-06-10T06:32:17;93564.81;;;15.48;100.00
50093;BME280;35974;47.752;10.290;2023-06-10T06:34:45;93568.66;;;15.57;100.00
50093;BME280;35974;47.752;10.290;2023-06-10T06:37:11;93576.63;;;15.62;100.00
50093;BME280;35974;47.752;10.290;2023-06-10T06:39:37;93578.06;;;15.70;100.00
50093;BME280;35974;47.752;10.290;2023-06-10T06:42:04;93574.88;;;15.85;100.00
50093;BME280;35974;47.752;10.290;2023-06-10T06:44:31;93573.25;;;15.84;100.00
50093;BME280;35974;47.752;10.290;2023-06-10T06:46:58;93572.28;;;15.90;100.00
50093;BME280;35974;47.752;10.290;2023-06-10T06:49:24;93578.69;;;15.94;100.00
50093;BME280;35974;47.752;10.290;2023-06-10T06:51:50;93579.44;;;16.11;99.87
50093;BME280;35974;47.752;10.290;2023-06-10T06:54:17;93580.53;;;16.16;100.00
50093;BME280;35974;47.752;10.290;2023-06-10T06:59:13;93570.34;;;16.46;96.85
50093;BME280;35974;47.752;10.290;2023-06-10T07:01:40;93575.13;;;16.50;95.71
50093;BME280;35974;47.752;10.290;2023-06-10T07:04:06;93575.44;;;16.53;94.74
50093;BME280;35974;47.752;10.290;2023-06-10T07:06:33;93575.47;;;16.80;92.45
50093;BME280;35974;47.752;10.290;2023-06-10T07:09:04;93575.34;;;17.25;85.97
50093;BME280;35974;47.752;10.290;2023-06-10T07:11:30;93578.66;;;17.42;83.87
50093;BME280;35974;47.752;10.290;2023-06-10T07:13:57;93573.75;;;17.24;82.95
50093;BME280;35974;47.752;10.290;2023-06-10T07:16:29;93567.94;;;17.27;83.14
50093;BME280;35974;47.752;10.290;2023-06-10T07:18:55;93577.53;;;17.33;83.25
50093;BME280;35974;47.752;10.290;2023-06-10T07:21:21;93572.47;;;17.64;83.33
50093;BME280;35974;47.752;10.290;2023-06-10T07:23:49;93569.91;;;17.79;80.79
50093;BME280;35974;47.752;10.290;2023-06-10T07:26:18;93565.78;;;17.93;80.11
50093;BME280;35974;47.752;10.290;2023-06-10T07:28:45;93573.84;;;18.19;77.34
50093;BME280;35974;47.752;10.290;2023-06-10T07:31:11;93538.25;;;17.89;77.20
50093;BME280;35974;47.752;10.290;2023-06-10T07:33:38;93576.97;;;18.11;78.94
50093;BME280;35974;47.752;10.290;2023-06-10T07:36:09;93578.56;;;18.07;78.93
50093;BME280;35974;47.752;10.290;2023-06-10T07:38:36;93553.59;;;17.92;79.27
50093;BME280;35974;47.752;10.290;2023-06-10T07:41:02;93575.97;;;18.17;78.12
50093;BME280;35974;47.752;10.290;2023-06-10T07:43:29;93582.88;;;18.18;78.50
50093;BME280;35974;47.752;10.290;2023-06-10T07:45:55;93577.06;;;18.26;77.91
50093;BME280;35974;47.752;10.290;2023-06-10T07:48:27;93569.13;;;18.26;78.34
50093;BME280;35974;47.752;10.290;2023-06-10T07:50:53;93569.50;;;18.61;76.17
50093;BME280;35974;47.752;10.290;2023-06-10T07:53:26;93568.16;;;18.63;76.84
50093;BME280;35974;47.752;10.290;2023-06-10T07:55:53;93562.94;;;18.84;75.43
50093;BME280;35974;47.752;10.290;2023-06-10T07:58:19;93573.56;;;18.94;76.46
50093;BME280;35974;47.752;10.290;2023-06-10T08:00:48;93566.69;;;19.03;76.13
50093;BME280;35974;47.752;10.290;2023-06-10T08:03:15;93570.41;;;19.02;75.69
50093;BME280;35974;47.752;10.290;2023-06-10T08:05:41;93561.94;;;19.21;74.68
50093;BME280;35974;47.752;10.290;2023-06-10T08:08:08;93572.81;;;19.25;74.34
50093;BME280;35974;47.752;10.290;2023-06-10T08:10:34;93561.91;;;19.00;75.37
50093;BME280;35974;47.752;10.290;2023-06-10T08:13:01;93561.66;;;19.07;76.44
50093;BME280;35974;47.752;10.290;2023-06-10T08:15:27;93569.91;;;19.42;75.08
50093;BME280;35974;47.752;10.290;2023-06-10T08:17:53;93556.63;;;19.47;74.75
50093;BME280;35974;47.752;10.290;2023-06-10T08:20:20;93558.75;;;19.39;74.34
50093;BME280;35974;47.752;10.290;2023-06-10T08:22:49;93556.63;;;19.52;72.71
50093;BME280;35974;47.752;10.290;2023-06-10T08:25:23;93568.84;;;19.58;72.42
50093;BME280;35974;47.752;10.290;2023-06-10T08:27:49;93572.53;;;19.52;73.75
50093;BME280;35974;47.752;10.290;2023-06-10T08:30:19;93566.19;;;19.84;71.04
50093;BME280;35974;47.752;10.290;2023-06-10T08:32:45;93569.06;;;19.67;72.19
50093;BME280;35974;47.752;10.290;2023-06-10T08:35:12;93564.03;;;19.86;72.09
50093;BME280;35974;47.752;10.290;2023-06-10T08:37:42;93565.63;;;19.92;72.08
50093;BME280;35974;47.752;10.290;2023-06-10T08:40:08;93560.19;;;20.33;69.33
50093;BME280;35974;47.752;10.290;2023-06-10T08:42:39;93567.00;;;20.49;66.49
50093;BME280;35974;47.752;10.290;2023-06-10T08:45:07;93565.09;;;20.71;64.76
50093;BME280;35974;47.752;10.290;2023-06-10T08:50:22;93557.31;;;20.79;63.79
50093;BME280;35974;47.752;10.290;2023-06-10T08:52:50;93558.81;;;20.96;64.04
50093;BME280;35974;47.752;10.290;2023-06-10T08:58:03;93553.25;;;21.32;66.01
50093;BME280;35974;47.752;10.290;2023-06-10T09:00:30;93558.03;;;21.35;64.68
50093;BME280;35974;47.752;10.290;2023-06-10T09:02:57;93565.34;;;21.53;64.54
50093;BME280;35974;47.752;10.290;2023-06-10T09:05:28;93564.69;;;21.67;61.84
50093;BME280;35974;47.752;10.290;2023-06-10T09:07:56;93564.59;;;21.77;59.80
50093;BME280;35974;47.752;10.290;2023-06-10T09:10:23;93560.34;;;21.76;57.89
50093;BME280;35974;47.752;10.290;2023-06-10T09:12:50;93558.81;;;21.70;59.55
50093;BME280;35974;47.752;10.290;2023-06-10T09:15:16;93565.72;;;21.71;58.70
50093;BME280;35974;47.752;10.290;2023-06-10T09:17:43;93559.84;;;21.74;58.91
50093;BME280;35974;47.752;10.290;2023-06-10T09:20:10;93566.50;;;22.01;58.97
50093;BME280;35974;47.752;10.290;2023-06-10T09:22:38;93565.19;;;22.22;55.79
50093;BME280;35974;47.752;10.290;2023-06-10T09:25:08;93555.25;;;22.33;56.38
50093;BME280;35974;47.752;10.290;2023-06-10T09:27:50;93552.09;;;22.31;57.08
50093;BME280;35974;47.752;10.290;2023-06-10T09:30:32;93552.69;;;22.47;56.24
50093;BME280;35974;47.752;10.290;2023-06-10T09:33:03;93542.53;;;22.49;57.63
50093;BME280;35974;47.752;10.290;2023-06-10T09:35:35;93559.63;;;22.67;56.95
50093;BME280;35974;47.752;10.290;2023-06-10T09:38:02;93548.91;;;22.91;53.95
50093;BME280;35974;47.752;10.290;2023-06-10T09:40:34;93554.53;;;23.09;54.62
50093;BME280;35974;47.752;10.290;2023-06-10T09:43:14;93554.31;;;23.24;53.90
50093;BME280;35974;47.752;10.290;2023-06-10T09:45:40;93552.50;;;23.38;53.95
50093;BME280;35974;47.752;10.290;2023-06-10T09:48:11;93557.91;;;23.66;55.33
50093;BME280;35974;47.752;10.290;2023-06-10T09:50:44;93555.06;;;23.76;52.72
50093;BME280;35974;47.752;10.290;2023-06-10T09:53:11;93553.66;;;23.98;51.72
50093;BME280;35974;47.752;10.290;2023-06-10T09:55:44;93559.19;;;24.16;49.29
50093;BME280;35974;47.752;10.290;2023-06-10T09:58:11;93561.19;;;24.24;49.53
50093;BME280;35974;47.752;10.290;2023-06-10T10:00:37;93555.44;;;24.44;51.42
50093;BME280;35974;47.752;10.290;2023-06-10T10:03:04;93556.25;;;24.59;47.97
50093;BME280;35974;47.752;10.290;2023-06-10T10:05:41;93551.69;;;24.45;49.53
50093;BME280;35974;47.752;10.290;2023-06-10T10:08:09;93549.31;;;24.58;50.78
50093;BME280;35974;47.752;10.290;2023-06-10T10:10:40;93550.03;;;25.00;48.02
50093;BME280;35974;47.752;10.290;2023-06-10T10:13:07;93549.19;;;25.13;45.70
50093;BME280;35974;47.752;10.290;2023-06-10T10:15:35;93552.38;;;25.15;46.83
50093;BME280;35974;47.752;10.290;2023-06-10T10:18:09;93547.44;;;25.09;48.71
50093;BME280;35974;47.752;10.290;2023-06-10T10:20:46;93545.94;;;24.66;49.70
50093;BME280;35974;47.752;10.290;2023-06-10T10:23:13;93546.69;;;24.80;48.45
50093;BME280;35974;47.752;10.290;2023-06-10T10:25:41;93553.84;;;24.85;47.96
50093;BME280;35974;47.752;10.290;2023-06-10T10:28:09;93552.28;;;24.70;48.86
50093;BME280;35974;47.752;10.290;2023-06-10T10:30:46;93553.56;;;24.73;48.29
50093;BME280;35974;47.752;10.290;2023-06-10T10:33:22;93551.69;;;24.59;47.63
50093;BME280;35974;47.752;10.290;2023-06-10T10:35:50;93540.41;;;24.48;45.28
50093;BME280;35974;47.752;10.290;2023-06-10T10:38:19;93542.56;;;24.46;46.71
50093;BME280;35974;47.752;10.290;2023-06-10T10:40:45;93546.16;;;24.28;48.12
50093;BME280;35974;47.752;10.290;2023-06-10T10:43:13;93550.19;;;24.39;48.12
50093;BME280;35974;47.752;10.290;2023-06-10T10:45:41;93544.16;;;24.20;47.58
50093;BME280;35974;47.752;10.290;2023-06-10T10:48:08;93546.75;;;24.25;44.73
50093;BME280;35974;47.752;10.290;2023-06-10T10:50:38;93543.97;;;24.30;45.57
50093;BME280;35974;47.752;10.290;2023-06-10T10:53:05;93537.06;;;24.29;47.33
50093;BME280;35974;47.752;10.290;2023-06-10T10:55:31;93535.06;;;24.48;48.33
50093;BME280;35974;47.752;10.290;2023-06-10T10:57:59;93535.84;;;24.35;48.21
50093;BME280;35974;47.752;10.290;2023-06-10T11:00:29;93537.63;;;24.26;47.13
50093;BME280;35974;47.752;10.290;2023-06-10T11:03:16;93541.34;;;23.83;46.26
50093;BME280;35974;47.752;10.290;2023-06-10T11:05:47;93536.13;;;23.59;47.19
50093;BME280;35974;47.752;10.290;2023-06-10T11:09:03;93534.13;;;23.51;48.87
50093;BME280;35974;47.752;10.290;2023-06-10T11:16:31;93536.44;;;24.04;47.07
50093;BME280;35974;47.752;10.290;2023-06-10T11:19:04;93531.47;;;23.84;47.62
50093;BME280;35974;47.752;10.290;2023-06-10T11:24:11;93535.03;;;23.93;48.66
50093;BME280;35974;47.752;10.290;2023-06-10T11:26:43;93537.00;;;24.01;47.21
50093;BME280;35974;47.752;10.290;2023-06-10T11:29:10;93535.44;;;24.28;47.31
50093;BME280;35974;47.752;10.290;2023-06-10T11:31:44;93537.81;;;24.16;46.56
50093;BME280;35974;47.752;10.290;2023-06-10T11:34:20;93530.31;;;24.18;46.90
50093;BME280;35974;47.752;10.290;2023-06-10T11:36:47;93530.09;;;24.42;45.65
50093;BME280;35974;47.752;10.290;2023-06-10T11:39:21;93527.44;;;24.28;44.22
50093;BME280;35974;47.752;10.290;2023-06-10T11:42:04;93529.22;;;24.19;45.27
50093;BME280;35974;47.752;10.290;2023-06-10T11:44:38;93523.94;;;24.41;47.34
50093;BME280;35974;47.752;10.290;2023-06-10T11:47:04;93528.63;;;25.00;46.64
50093;BME280;35974;47.752;10.290;2023-06-10T11:49:31;93518.50;;;24.97;45.19
50093;BME280;35974;47.752;10.290;2023-06-10T11:51:57;93515.13;;;25.05;43.46
50093;BME280;35974;47.752;10.290;2023-06-10T11:54:24;93518.78;;;25.09;45.22
50093;BME280;35974;47.752;10.290;2023-06-10T11:56:56;93522.09;;;24.92;44.63
50093;BME280;35974;47.752;10.290;2023-06-10T11:59:26;93527.09;;;24.43;47.22
50093;BME280;35974;47.752;10.290;2023-06-10T12:01:53;93523.72;;;24.52;47.24
50093;BME280;35974;47.752;10.290;2023-06-10T12:04:19;93511.66;;;24.68;47.80
50093;BME280;35974;47.752;10.290;2023-06-10T12:06:52;93518.72;;;25.00;45.01
50093;BME280;35974;47.752;10.290;2023-06-10T12:09:23;93517.44;;;24.98;44.83
50093;BME280;35974;47.752;10.290;2023-06-10T12:12:00;93515.78;;;24.74;43.18
50093;BME280;35974;47.752;10.290;2023-06-10T12:17:14;93503.44;;;25.01;46.71
50093;BME280;35974;47.752;10.290;2023-06-10T12:19:41;93506.72;;;24.98;46.05
50093;BME280;35974;47.752;10.290;2023-06-10T12:22:07;93514.78;;;24.84;46.72
50093;BME280;35974;47.752;10.290;2023-06-10T12:24:58;93510.66;;;24.78;47.59
50093;BME280;35974;47.752;10.290;2023-06-10T12:27:24;93506.53;;;24.44;46.84
50093;BME280;35974;47.752;10.290;2023-06-10T12:29:51;93510.47;;;24.46;48.03
50093;BME280;35974;47.752;10.290;2023-06-10T12:32:19;93509.09;;;24.63;49.43
50093;BME280;35974;47.752;10.290;2023-06-10T12:34:49;93512.06;;;24.47;48.04
50093;BME280;35974;47.752;10.290;2023-06-10T12:39:51;93519.59;;;24.31;47.74
50093;BME280;35974;47.752;10.290;2023-06-10T12:42:26;93504.25;;;24.37;46.47
50093;BME280;35974;47.752;10.290;2023-06-10T12:44:53;93502.78;;;24.03;46.93
50093;BME280;35974;47.752;10.290;2023-06-10T12:47:21;93498.41;;;24.07;47.93
50093;BME280;35974;47.752;10.290;2023-06-10T12:49:57;93502.19;;;24.06;47.31
50093;BME280;35974;47.752;10.290;2023-06-10T12:52:25;93496.44;;;24.27;48.46
50093;BME280;35974;47.752;10.290;2023-06-10T12:54:51;93493.66;;;24.60;46.52
50093;BME280;35974;47.752;10.290;2023-06-10T12:57:19;93500.38;;;24.57;47.99
50093;BME280;35974;47.752;10.290;2023-06-10T12:59:46;93485.53;;;24.65;47.16
50093;BME280;35974;47.752;10.290;2023-06-10T13:02:20;93499.06;;;25.05;47.10
50093;BME280;35974;47.752;10.290;2023-06-10T13:04:51;93502.00;;;25.17;46.15
50093;BME280;35974;47.752;10.290;2023-06-10T13:07:26;93498.09;;;25.01;45.28
50093;BME280;35974;47.752;10.290;2023-06-10T13:12:23;93490.97;;;24.96;43.20
50093;BME280;35974;47.752;10.290;2023-06-10T13:15:09;93495.38;;;24.78;42.65
50093;BME280;35974;47.752;10.290;2023-06-10T13:17:37;93486.03;;;24.90;43.29
50093;BME280;35974;47.752;10.290;2023-06-10T13:20:04;93492.38;;;25.39;43.19